sensor_id;sensor_type;location;lat;lon;timestamp;P1;durP1;ratioP1;P2;durP2;ratioP2
69502;SDS011;56704;54.242;12.442;2023-08-01T00:00:57;11.43;;;4.37;;
69502;SDS011;56704;54.242;12.442;2023-08-01T00:03:24;11.32;;;5.07;;
69502;SDS011;56704;54.242;12.442;2023-08-01T00:05:51;10.40;;;4.75;;
69502;SDS011;56704;54.242;12.442;2023-08-01T00:08:21;11.85;;;5.05;;
69502;SDS011;56704;54.242;12.442;2023-08-01T00:10:48;10.32;;;4.90;;
69502;SDS011;56704;54.242;12.442;2023-08-01T00:13:16;12.00;;;4.60;;
69502;SDS011;56704;54.242;12.442;2023-08-01T00:15:46;11.68;;;5.10;;
69502;SDS011;56704;54.242;12.442;2023-08-01T00:18:14;9.50;;;4.53;;
69502;SDS011;56704;54.242;12.442;2023-08-01T00:20:41;10.35;;;4.35;;
69502;SDS011;56704;54.242;12.442;2023-08-01T00:23:13;10.93;;;4.10;;
69502;SDS011;56704;54.242;12.442;2023-08-01T00:25:43;11.73;;;4.43;;
69502;SDS011;56704;54.242;12.442;2023-08-01T00:28:16;10.20;;;4.35;;
69502;SDS011;56704;54.242;12.442;2023-08-01T00:30:45;11.32;;;4.70;;
69502;SDS011;56704;54.242;12.442;2023-08-01T00:33:12;10.30;;;4.13;;
69502;SDS011;56704;54.242;12.442;2023-08-01T00:35:52;13.32;;;5.40;;
69502;SDS011;56704;54.242;12.442;2023-08-01T00:38:20;10.40;;;3.73;;
69502;SDS011;56704;54.242;12.442;2023-08-01T00:40:47;9.73;;;4.25;;
69502;SDS011;56704;54.242;12.442;2023-08-01T00:43:15;12.27;;;4.22;;
69502;SDS011;56704;54.242;12.442;2023-08-01T00:45:48;12.75;;;4.35;;
69502;SDS011;56704;54.242;12.442;2023-08-01T00:48:26;10.98;;;4.40;;
69502;SDS011;56704;54.242;12.442;2023-08-01T00:51:03;11.37;;;4.23;;
69502;SDS011;56704;54.242;12.442;2023-08-01T00:53:58;10.02;;;4.47;;
69502;SDS011;56704;54.242;12.442;2023-08-01T00:56:26;11.45;;;3.88;;
69502;SDS011;56704;54.242;12.442;2023-08-01T00:59:02;11.02;;;3.53;;
69502;SDS011;56704;54.242;12.442;2023-08-01T01:01:31;8.63;;;3.30;;
69502;SDS011;56704;54.242;12.442;2023-08-01T01:04:02;9.43;;;3.87;;
69502;SDS011;56704;54.242;12.442;2023-08-01T01:06:32;11.15;;;3.45;;
69502;SDS011;56704;54.242;12.442;2023-08-01T01:09:30;7.75;;;2.70;;
69502;SDS011;56704;54.242;12.442;2023-08-01T01:11:59;9.02;;;3.80;;
69502;SDS011;56704;54.242;12.442;2023-08-01T01:14:26;5.07;;;1.83;;
69502;SDS011;56704;54.242;12.442;2023-08-01T01:16:57;8.10;;;3.20;;
69502;SDS011;56704;54.242;12.442;2023-08-01T01:19:26;7.97;;;3.42;;
69502;SDS011;56704;54.242;12.442;2023-08-01T01:21:54;7.88;;;3.15;;
69502;SDS011;56704;54.242;12.442;2023-08-01T01:24:22;9.02;;;3.10;;
69502;SDS011;56704;54.242;12.442;2023-08-01T01:26:50;8.18;;;2.90;;
69502;SDS011;56704;54.242;12.442;2023-08-01T01:29:17;7.80;;;3.10;;
69502;SDS011;56704;54.242;12.442;2023-08-01T01:31:46;11.50;;;3.50;;
69502;SDS011;56704;54.242;12.442;2023-08-01T01:34:14;6.40;;;2.63;;
69502;SDS011;56704;54.242;12.442;2023-08-01T01:36:44;7.97;;;2.60;;
69502;SDS011;56704;54.242;12.442;2023-08-01T01:39:15;7.65;;;2.53;;
69502;SDS011;56704;54.242;12.442;2023-08-01T01:41:43;8.80;;;2.83;;
69502;SDS011;56704;54.242;12.442;2023-08-01T01:44:10;5.68;;;2.42;;
69502;SDS011;56704;54.242;12.442;2023-08-01T01:46:37;5.53;;;2.10;;
69502;SDS011;56704;54.242;12.442;2023-08-01T01:49:04;7.32;;;2.47;;
69502;SDS011;56704;54.242;12.442;2023-08-01T01:51:50;7.35;;;2.70;;
69502;SDS011;56704;54.242;12.442;2023-08-01T01:57:22;6.78;;;2.15;;
69502;SDS011;56704;54.242;12.442;2023-08-01T01:59:49;7.60;;;2.80;;
69502;SDS011;56704;54.242;12.442;2023-08-01T02:02:17;7.00;;;2.35;;
69502;SDS011;56704;54.242;12.442;2023-08-01T02:04:45;13.88;;;3.58;;
69502;SDS011;56704;54.242;12.442;2023-08-01T02:07:12;8.73;;;2.03;;
69502;SDS011;56704;54.242;12.442;2023-08-01T02:09:44;2.80;;;0.80;;
69502;SDS011;56704;54.242;12.442;2023-08-01T02:12:11;4.28;;;1.45;;
69502;SDS011;56704;54.242;12.442;2023-08-01T02:14:42;4.75;;;1.38;;
69502;SDS011;56704;54.242;12.442;2023-08-01T02:17:10;5.30;;;1.42;;
69502;SDS011;56704;54.242;12.442;2023-08-01T02:19:38;5.60;;;1.20;;
69502;SDS011;56704;54.242;12.442;2023-08-01T02:22:05;3.13;;;0.90;;
69502;SDS011;56704;54.242;12.442;2023-08-01T02:24:32;6.80;;;1.35;;
69502;SDS011;56704;54.242;12.442;2023-08-01T02:27:02;4.43;;;1.13;;
69502;SDS011;56704;54.242;12.442;2023-08-01T02:29:29;4.55;;;1.50;;
69502;SDS011;56704;54.242;12.442;2023-08-01T02:31:57;3.00;;;1.00;;
69502;SDS011;56704;54.242;12.442;2023-08-01T02:34:25;4.70;;;0.90;;
69502;SDS011;56704;54.242;12.442;2023-08-01T02:36:52;5.65;;;1.00;;
69502;SDS011;56704;54.242;12.442;2023-08-01T02:39:21;5.28;;;0.80;;
69502;SDS011;56704;54.242;12.442;2023-08-01T02:41:50;6.20;;;1.40;;
69502;SDS011;56704;54.242;12.442;2023-08-01T03:22:22;4.67;;;1.07;;
69502;SDS011;56704;54.242;12.442;2023-08-01T03:43:47;3.10;;;0.97;;
69502;SDS011;56704;54.242;12.442;2023-08-01T03:46:27;4.60;;;1.20;;
69502;SDS011;56704;54.242;12.442;2023-08-01T04:10:36;3.80;;;1.35;;
69502;SDS011;56704;54.242;12.442;2023-08-01T04:13:15;3.85;;;1.23;;
69502;SDS011;56704;54.242;12.442;2023-08-01T04:15:44;5.38;;;1.30;;
69502;SDS011;56704;54.242;12.442;2023-08-01T04:18:14;7.00;;;1.38;;
69502;SDS011;56704;54.242;12.442;2023-08-01T04:20:59;5.40;;;1.50;;
69502;SDS011;56704;54.242;12.442;2023-08-01T04:44:28;4.25;;;1.65;;
69502;SDS011;56704;54.242;12.442;2023-08-01T04:46:55;5.33;;;1.93;;
69502;SDS011;56704;54.242;12.442;2023-08-01T04:49:24;5.38;;;1.75;;
69502;SDS011;56704;54.242;12.442;2023-08-01T04:51:51;5.47;;;1.80;;
69502;SDS011;56704;54.242;12.442;2023-08-01T04:54:18;4.30;;;1.70;;
69502;SDS011;56704;54.242;12.442;2023-08-01T04:56:45;5.18;;;1.60;;
69502;SDS011;56704;54.242;12.442;2023-08-01T04:59:13;5.20;;;2.00;;
69502;SDS011;56704;54.242;12.442;2023-08-01T05:04:36;7.28;;;2.10;;
69502;SDS011;56704;54.242;12.442;2023-08-01T05:07:04;5.47;;;1.77;;
69502;SDS011;56704;54.242;12.442;2023-08-01T05:09:32;4.88;;;1.90;;
69502;SDS011;56704;54.242;12.442;2023-08-01T05:11:59;3.50;;;1.20;;
69502;SDS011;56704;54.242;12.442;2023-08-01T05:14:26;4.45;;;1.70;;
69502;SDS011;56704;54.242;12.442;2023-08-01T05:16:53;5.28;;;2.13;;
69502;SDS011;56704;54.242;12.442;2023-08-01T05:19:21;5.50;;;1.35;;
69502;SDS011;56704;54.242;12.442;2023-08-01T05:21:49;4.85;;;1.98;;
69502;SDS011;56704;54.242;12.442;2023-08-01T05:24:16;4.37;;;1.43;;
69502;SDS011;56704;54.242;12.442;2023-08-01T05:26:44;5.72;;;1.70;;
69502;SDS011;56704;54.242;12.442;2023-08-01T05:29:11;2.58;;;0.88;;
69502;SDS011;56704;54.242;12.442;2023-08-01T05:31:38;4.80;;;1.63;;
69502;SDS011;56704;54.242;12.442;2023-08-01T05:34:05;12.00;;;2.40;;
69502;SDS011;56704;54.242;12.442;2023-08-01T05:36:32;5.27;;;1.47;;
69502;SDS011;56704;54.242;12.442;2023-08-01T05:39:01;5.40;;;1.95;;
69502;SDS011;56704;54.242;12.442;2023-08-01T05:41:28;6.57;;;1.80;;
69502;SDS011;56704;54.242;12.442;2023-08-01T05:43:56;5.45;;;1.58;;
69502;SDS011;56704;54.242;12.442;2023-08-01T05:46:23;3.78;;;1.38;;
69502;SDS011;56704;54.242;12.442;2023-08-01T05:48:50;5.00;;;2.30;;
69502;SDS011;56704;54.242;12.442;2023-08-01T05:51:19;5.63;;;1.83;;
69502;SDS011;56704;54.242;12.442;2023-08-01T05:53:46;4.38;;;1.60;;
69502;SDS011;56704;54.242;12.442;2023-08-01T05:56:15;6.53;;;2.45;;
69502;SDS011;56704;54.242;12.442;2023-08-01T05:58:45;5.25;;;2.10;;
69502;SDS011;56704;54.242;12.442;2023-08-01T06:01:13;7.60;;;2.80;;
69502;SDS011;56704;54.242;12.442;2023-08-01T06:03:40;6.50;;;2.50;;
69502;SDS011;56704;54.242;12.442;2023-08-01T06:06:07;6.60;;;2.92;;
69502;SDS011;56704;54.242;12.442;2023-08-01T06:08:34;7.35;;;2.90;;
69502;SDS011;56704;54.242;12.442;2023-08-01T06:11:02;7.35;;;3.40;;
69502;SDS011;56704;54.242;12.442;2023-08-01T06:13:30;7.80;;;3.03;;
69502;SDS011;56704;54.242;12.442;2023-08-01T06:15:58;7.75;;;3.00;;
69502;SDS011;56704;54.242;12.442;2023-08-01T06:18:25;5.65;;;2.10;;
69502;SDS011;56704;54.242;12.442;2023-08-01T06:20:52;9.23;;;2.58;;
69502;SDS011;56704;54.242;12.442;2023-08-01T06:23:19;8.38;;;3.50;;
69502;SDS011;56704;54.242;12.442;2023-08-01T06:25:47;5.93;;;2.93;;
69502;SDS011;56704;54.242;12.442;2023-08-01T06:28:14;7.05;;;3.00;;
69502;SDS011;56704;54.242;12.442;2023-08-01T06:30:43;7.15;;;3.28;;
69502;SDS011;56704;54.242;12.442;2023-08-01T06:33:13;6.80;;;3.20;;
69502;SDS011;56704;54.242;12.442;2023-08-01T06:35:41;7.47;;;3.20;;
69502;SDS011;56704;54.242;12.442;2023-08-01T06:38:08;7.43;;;3.43;;
69502;SDS011;56704;54.242;12.442;2023-08-01T06:40:36;8.05;;;3.30;;
69502;SDS011;56704;54.242;12.442;2023-08-01T06:43:03;11.63;;;4.07;;
69502;SDS011;56704;54.242;12.442;2023-08-01T06:45:30;10.68;;;3.67;;
69502;SDS011;56704;54.242;12.442;2023-08-01T06:47:59;9.98;;;3.72;;
69502;SDS011;56704;54.242;12.442;2023-08-01T06:50:26;7.10;;;3.33;;
69502;SDS011;56704;54.242;12.442;2023-08-01T06:52:55;9.43;;;3.78;;
69502;SDS011;56704;54.242;12.442;2023-08-01T06:55:22;6.57;;;2.78;;
69502;SDS011;56704;54.242;12.442;2023-08-01T06:57:49;5.80;;;2.50;;
69502;SDS011;56704;54.242;12.442;2023-08-01T07:00:17;6.65;;;2.97;;
69502;SDS011;56704;54.242;12.442;2023-08-01T07:02:44;6.40;;;2.13;;
69502;SDS011;56704;54.242;12.442;2023-08-01T07:05:15;7.65;;;3.10;;
69502;SDS011;56704;54.242;12.442;2023-08-01T07:07:43;6.70;;;2.95;;
69502;SDS011;56704;54.242;12.442;2023-08-01T07:10:10;6.00;;;2.97;;
69502;SDS011;56704;54.242;12.442;2023-08-01T07:12:37;6.88;;;2.90;;
69502;SDS011;56704;54.242;12.442;2023-08-01T07:15:05;7.37;;;2.37;;
69502;SDS011;56704;54.242;12.442;2023-08-01T07:17:32;6.57;;;2.72;;
69502;SDS011;56704;54.242;12.442;2023-08-01T07:20:00;6.05;;;2.33;;
69502;SDS011;56704;54.242;12.442;2023-08-01T07:22:29;5.20;;;1.50;;
69502;SDS011;56704;54.242;12.442;2023-08-01T07:24:56;6.80;;;2.60;;
69502;SDS011;56704;54.242;12.442;2023-08-01T07:27:23;5.93;;;3.20;;
69502;SDS011;56704;54.242;12.442;2023-08-01T07:29:50;5.60;;;2.80;;
69502;SDS011;56704;54.242;12.442;2023-08-01T07:32:17;5.55;;;2.67;;
69502;SDS011;56704;54.242;12.442;2023-08-01T07:34:45;5.28;;;1.92;;
69502;SDS011;56704;54.242;12.442;2023-08-01T07:37:12;5.25;;;2.70;;
69502;SDS011;56704;54.242;12.442;2023-08-01T07:39:40;7.83;;;2.67;;
69502;SDS011;56704;54.242;12.442;2023-08-01T07:42:07;5.57;;;2.42;;
69502;SDS011;56704;54.242;12.442;2023-08-01T07:44:35;7.47;;;2.63;;
69502;SDS011;56704;54.242;12.442;2023-08-01T07:47:02;4.97;;;2.20;;
69502;SDS011;56704;54.242;12.442;2023-08-01T07:49:29;5.53;;;2.65;;
69502;SDS011;56704;54.242;12.442;2023-08-01T07:51:56;4.93;;;2.30;;
69502;SDS011;56704;54.242;12.442;2023-08-01T07:54:24;5.20;;;2.60;;
69502;SDS011;56704;54.242;12.442;2023-08-01T07:56:53;4.50;;;1.75;;
69502;SDS011;56704;54.242;12.442;2023-08-01T07:59:20;5.05;;;1.15;;
69502;SDS011;56704;54.242;12.442;2023-08-01T08:01:47;6.43;;;2.72;;
69502;SDS011;56704;54.242;12.442;2023-08-01T08:04:14;5.03;;;2.00;;
69502;SDS011;56704;54.242;12.442;2023-08-01T08:06:41;7.07;;;2.88;;
69502;SDS011;56704;54.242;12.442;2023-08-01T08:09:09;4.80;;;2.10;;
69502;SDS011;56704;54.242;12.442;2023-08-01T08:11:36;4.40;;;1.45;;
69502;SDS011;56704;54.242;12.442;2023-08-01T08:14:04;4.43;;;1.88;;
69502;SDS011;56704;54.242;12.442;2023-08-01T08:16:31;5.20;;;2.00;;
69502;SDS011;56704;54.242;12.442;2023-08-01T08:18:59;5.65;;;2.28;;
69502;SDS011;56704;54.242;12.442;2023-08-01T08:21:26;4.43;;;2.00;;
69502;SDS011;56704;54.242;12.442;2023-08-01T08:23:53;4.20;;;2.15;;
69502;SDS011;56704;54.242;12.442;2023-08-01T08:26:20;4.55;;;2.33;;
69502;SDS011;56704;54.242;12.442;2023-08-01T08:28:48;4.07;;;1.33;;
69502;SDS011;56704;54.242;12.442;2023-08-01T08:31:17;3.90;;;1.67;;
69502;SDS011;56704;54.242;12.442;2023-08-01T08:33:44;8.18;;;2.47;;
69502;SDS011;56704;54.242;12.442;2023-08-01T08:36:14;5.85;;;2.03;;
69502;SDS011;56704;54.242;12.442;2023-08-01T08:38:41;6.43;;;2.88;;
69502;SDS011;56704;54.242;12.442;2023-08-01T08:41:09;5.37;;;2.83;;
69502;SDS011;56704;54.242;12.442;2023-08-01T08:43:37;4.68;;;2.38;;
69502;SDS011;56704;54.242;12.442;2023-08-01T08:46:04;6.10;;;2.55;;
69502;SDS011;56704;54.242;12.442;2023-08-01T08:48:33;5.97;;;2.50;;
69502;SDS011;56704;54.242;12.442;2023-08-01T08:51:01;7.40;;;3.20;;
69502;SDS011;56704;54.242;12.442;2023-08-01T08:53:29;8.23;;;3.00;;
69502;SDS011;56704;54.242;12.442;2023-08-01T08:55:57;6.80;;;2.70;;
69502;SDS011;56704;54.242;12.442;2023-08-01T08:58:25;6.03;;;2.95;;
69502;SDS011;56704;54.242;12.442;2023-08-01T09:00:52;7.35;;;3.38;;
69502;SDS011;56704;54.242;12.442;2023-08-01T09:03:20;6.03;;;3.17;;
69502;SDS011;56704;54.242;12.442;2023-08-01T09:05:49;7.70;;;2.90;;
69502;SDS011;56704;54.242;12.442;2023-08-01T09:08:18;6.05;;;2.58;;
69502;SDS011;56704;54.242;12.442;2023-08-01T09:10:45;7.00;;;2.60;;
69502;SDS011;56704;54.242;12.442;2023-08-01T09:13:13;5.65;;;3.05;;
69502;SDS011;56704;54.242;12.442;2023-08-01T09:15:41;8.10;;;3.05;;
69502;SDS011;56704;54.242;12.442;2023-08-01T09:18:09;6.67;;;3.33;;
69502;SDS011;56704;54.242;12.442;2023-08-01T09:20:40;10.80;;;3.58;;
69502;SDS011;56704;54.242;12.442;2023-08-01T09:23:09;9.43;;;3.88;;
69502;SDS011;56704;54.242;12.442;2023-08-01T09:25:37;7.97;;;3.75;;
69502;SDS011;56704;54.242;12.442;2023-08-01T09:28:14;8.38;;;4.10;;
69502;SDS011;56704;54.242;12.442;2023-08-01T09:30:45;6.73;;;2.83;;
69502;SDS011;56704;54.242;12.442;2023-08-01T09:33:12;7.53;;;3.78;;
69502;SDS011;56704;54.242;12.442;2023-08-01T09:35:39;7.15;;;3.42;;
69502;SDS011;56704;54.242;12.442;2023-08-01T09:38:07;8.18;;;4.00;;
69502;SDS011;56704;54.242;12.442;2023-08-01T09:40:39;8.23;;;3.95;;
69502;SDS011;56704;54.242;12.442;2023-08-01T09:43:06;9.30;;;4.40;;
69502;SDS011;56704;54.242;12.442;2023-08-01T09:45:34;8.73;;;4.38;;
69502;SDS011;56704;54.242;12.442;2023-08-01T09:48:01;7.63;;;3.50;;
69502;SDS011;56704;54.242;12.442;2023-08-01T09:50:28;7.75;;;4.00;;
69502;SDS011;56704;54.242;12.442;2023-08-01T09:52:55;9.35;;;3.60;;
69502;SDS011;56704;54.242;12.442;2023-08-01T09:55:33;6.33;;;2.67;;
69502;SDS011;56704;54.242;12.442;2023-08-01T09:58:02;7.07;;;3.20;;
69502;SDS011;56704;54.242;12.442;2023-08-01T10:00:31;6.10;;;2.38;;
69502;SDS011;56704;54.242;12.442;2023-08-01T10:02:58;7.18;;;2.08;;
69502;SDS011;56704;54.242;12.442;2023-08-01T10:05:26;5.93;;;2.60;;
69502;SDS011;56704;54.242;12.442;2023-08-01T10:07:54;7.70;;;2.97;;
69502;SDS011;56704;54.242;12.442;2023-08-01T10:10:23;5.50;;;3.15;;
69502;SDS011;56704;54.242;12.442;2023-08-01T10:12:51;7.15;;;2.60;;
69502;SDS011;56704;54.242;12.442;2023-08-01T10:15:20;7.18;;;2.45;;
69502;SDS011;56704;54.242;12.442;2023-08-01T10:17:47;5.03;;;2.20;;
69502;SDS011;56704;54.242;12.442;2023-08-01T10:20:14;6.83;;;2.43;;
69502;SDS011;56704;54.242;12.442;2023-08-01T10:22:42;4.25;;;1.95;;
69502;SDS011;56704;54.242;12.442;2023-08-01T10:25:10;5.93;;;2.20;;
69502;SDS011;56704;54.242;12.442;2023-08-01T10:27:37;5.40;;;2.85;;
69502;SDS011;56704;54.242;12.442;2023-08-01T10:30:06;5.95;;;2.55;;
69502;SDS011;56704;54.242;12.442;2023-08-01T10:32:36;6.13;;;2.63;;
69502;SDS011;56704;54.242;12.442;2023-08-01T10:35:04;7.38;;;3.40;;
69502;SDS011;56704;54.242;12.442;2023-08-01T10:37:40;6.15;;;3.03;;
69502;SDS011;56704;54.242;12.442;2023-08-01T10:40:08;5.88;;;2.42;;
69502;SDS011;56704;54.242;12.442;2023-08-01T10:42:39;6.32;;;3.33;;
69502;SDS011;56704;54.242;12.442;2023-08-01T10:45:06;5.73;;;2.90;;
69502;SDS011;56704;54.242;12.442;2023-08-01T10:47:33;6.22;;;3.53;;
69502;SDS011;56704;54.242;12.442;2023-08-01T10:50:02;4.78;;;2.13;;
69502;SDS011;56704;54.242;12.442;2023-08-01T10:52:39;7.35;;;2.60;;
69502;SDS011;56704;54.242;12.442;2023-08-01T10:55:07;6.22;;;2.00;;
69502;SDS011;56704;54.242;12.442;2023-08-01T10:57:35;6.27;;;2.13;;
69502;SDS011;56704;54.242;12.442;2023-08-01T11:00:02;6.63;;;2.67;;
69502;SDS011;56704;54.242;12.442;2023-08-01T11:02:32;5.38;;;2.15;;
69502;SDS011;56704;54.242;12.442;2023-08-01T11:05:00;10.65;;;3.42;;
69502;SDS011;56704;54.242;12.442;2023-08-01T11:07:29;8.63;;;2.95;;
69502;SDS011;56704;54.242;12.442;2023-08-01T11:10:06;8.47;;;3.33;;
69502;SDS011;56704;54.242;12.442;2023-08-01T11:12:35;5.50;;;2.47;;
69502;SDS011;56704;54.242;12.442;2023-08-01T11:15:02;8.60;;;3.40;;
69502;SDS011;56704;54.242;12.442;2023-08-01T11:17:31;7.38;;;3.22;;
69502;SDS011;56704;54.242;12.442;2023-08-01T11:20:02;6.22;;;3.20;;
69502;SDS011;56704;54.242;12.442;2023-08-01T11:22:31;12.80;;;4.37;;
69502;SDS011;56704;54.242;12.442;2023-08-01T11:24:58;8.00;;;3.80;;
69502;SDS011;56704;54.242;12.442;2023-08-01T11:27:26;5.95;;;2.63;;
69502;SDS011;56704;54.242;12.442;2023-08-01T11:29:53;8.35;;;3.65;;
69502;SDS011;56704;54.242;12.442;2023-08-01T11:32:20;7.72;;;3.20;;
69502;SDS011;56704;54.242;12.442;2023-08-01T11:34:48;5.33;;;2.70;;
69502;SDS011;56704;54.242;12.442;2023-08-01T11:37:18;4.85;;;1.70;;
69502;SDS011;56704;54.242;12.442;2023-08-01T11:39:46;5.38;;;1.92;;
69502;SDS011;56704;54.242;12.442;2023-08-01T11:42:15;6.97;;;2.72;;
69502;SDS011;56704;54.242;12.442;2023-08-01T11:44:42;4.30;;;2.20;;
69502;SDS011;56704;54.242;12.442;2023-08-01T11:47:10;7.47;;;2.50;;
69502;SDS011;56704;54.242;12.442;2023-08-01T11:49:38;6.50;;;1.77;;
69502;SDS011;56704;54.242;12.442;2023-08-01T11:52:06;9.13;;;2.22;;
69502;SDS011;56704;54.242;12.442;2023-08-01T11:54:43;4.15;;;1.30;;
69502;SDS011;56704;54.242;12.442;2023-08-01T11:57:11;4.93;;;1.70;;
69502;SDS011;56704;54.242;12.442;2023-08-01T11:59:46;4.00;;;1.50;;
69502;SDS011;56704;54.242;12.442;2023-08-01T12:02:20;3.42;;;1.00;;
69502;SDS011;56704;54.242;12.442;2023-08-01T12:04:48;3.65;;;1.38;;
69502;SDS011;56704;54.242;12.442;2023-08-01T12:07:15;3.45;;;1.35;;
69502;SDS011;56704;54.242;12.442;2023-08-01T12:09:42;4.57;;;1.40;;
69502;SDS011;56704;54.242;12.442;2023-08-01T12:12:09;3.73;;;1.17;;
69502;SDS011;56704;54.242;12.442;2023-08-01T12:14:41;5.40;;;1.48;;
69502;SDS011;56704;54.242;12.442;2023-08-01T12:17:08;7.95;;;1.45;;
69502;SDS011;56704;54.242;12.442;2023-08-01T12:19:35;2.33;;;0.93;;
69502;SDS011;56704;54.242;12.442;2023-08-01T12:22:03;3.70;;;1.27;;
69502;SDS011;56704;54.242;12.442;2023-08-01T12:24:30;4.73;;;1.50;;
69502;SDS011;56704;54.242;12.442;2023-08-01T12:26:58;4.72;;;1.30;;
69502;SDS011;56704;54.242;12.442;2023-08-01T12:29:26;3.33;;;1.20;;
69502;SDS011;56704;54.242;12.442;2023-08-01T12:31:54;3.08;;;1.08;;
69502;SDS011;56704;54.242;12.442;2023-08-01T12:34:21;4.25;;;1.30;;
69502;SDS011;56704;54.242;12.442;2023-08-01T12:36:48;4.93;;;0.90;;
69502;SDS011;56704;54.242;12.442;2023-08-01T12:39:15;3.90;;;1.50;;
69502;SDS011;56704;54.242;12.442;2023-08-01T12:41:42;3.30;;;1.30;;
69502;SDS011;56704;54.242;12.442;2023-08-01T12:44:10;2.90;;;1.08;;
69502;SDS011;56704;54.242;12.442;2023-08-01T12:46:37;3.33;;;1.15;;
69502;SDS011;56704;54.242;12.442;2023-08-01T12:49:06;3.30;;;0.80;;
69502;SDS011;56704;54.242;12.442;2023-08-01T12:51:33;3.50;;;1.02;;
69502;SDS011;56704;54.242;12.442;2023-08-01T12:54:00;3.63;;;0.93;;
69502;SDS011;56704;54.242;12.442;2023-08-01T12:56:27;3.28;;;1.05;;
69502;SDS011;56704;54.242;12.442;2023-08-01T12:58:55;4.00;;;1.13;;
69502;SDS011;56704;54.242;12.442;2023-08-01T13:01:22;3.83;;;1.20;;
69502;SDS011;56704;54.242;12.442;2023-08-01T13:03:49;6.25;;;1.50;;
69502;SDS011;56704;54.242;12.442;2023-08-01T13:06:17;5.38;;;1.42;;
69502;SDS011;56704;54.242;12.442;2023-08-01T13:08:44;4.18;;;1.33;;
69502;SDS011;56704;54.242;12.442;2023-08-01T13:11:12;3.40;;;1.00;;
69502;SDS011;56704;54.242;12.442;2023-08-01T13:13:40;7.03;;;1.57;;
69502;SDS011;56704;54.242;12.442;2023-08-01T13:16:07;3.13;;;1.10;;
69502;SDS011;56704;54.242;12.442;2023-08-01T13:18:34;4.75;;;1.83;;
69502;SDS011;56704;54.242;12.442;2023-08-01T13:21:08;5.30;;;1.50;;
69502;SDS011;56704;54.242;12.442;2023-08-01T13:23:37;3.75;;;1.50;;
69502;SDS011;56704;54.242;12.442;2023-08-01T13:26:04;4.10;;;1.40;;
69502;SDS011;56704;54.242;12.442;2023-08-01T13:28:31;3.78;;;1.40;;
69502;SDS011;56704;54.242;12.442;2023-08-01T13:30:58;3.85;;;1.25;;
69502;SDS011;56704;54.242;12.442;2023-08-01T13:33:25;5.70;;;1.75;;
69502;SDS011;56704;54.242;12.442;2023-08-01T13:35:52;7.28;;;2.25;;
69502;SDS011;56704;54.242;12.442;2023-08-01T13:38:20;5.83;;;2.20;;
69502;SDS011;56704;54.242;12.442;2023-08-01T13:40:49;5.47;;;1.88;;
69502;SDS011;56704;54.242;12.442;2023-08-01T13:43:16;6.80;;;2.97;;
69502;SDS011;56704;54.242;12.442;2023-08-01T13:45:43;5.97;;;2.15;;
69502;SDS011;56704;54.242;12.442;2023-08-01T13:48:10;5.38;;;2.40;;
69502;SDS011;56704;54.242;12.442;2023-08-01T13:50:37;6.60;;;2.00;;
69502;SDS011;56704;54.242;12.442;2023-08-01T13:53:04;9.18;;;2.28;;
69502;SDS011;56704;54.242;12.442;2023-08-01T13:55:35;8.23;;;1.77;;
69502;SDS011;56704;54.242;12.442;2023-08-01T13:58:03;4.05;;;1.52;;
69502;SDS011;56704;54.242;12.442;2023-08-01T14:00:31;5.90;;;1.42;;
69502;SDS011;56704;54.242;12.442;2023-08-01T14:02:58;4.67;;;1.90;;
69502;SDS011;56704;54.242;12.442;2023-08-01T14:05:26;4.35;;;0.77;;
69502;SDS011;56704;54.242;12.442;2023-08-01T14:07:53;4.28;;;1.52;;
69502;SDS011;56704;54.242;12.442;2023-08-01T14:10:21;4.03;;;1.10;;
69502;SDS011;56704;54.242;12.442;2023-08-01T14:12:48;4.15;;;1.25;;
69502;SDS011;56704;54.242;12.442;2023-08-01T14:15:17;5.07;;;1.27;;
69502;SDS011;56704;54.242;12.442;2023-08-01T14:17:44;5.45;;;1.20;;
69502;SDS011;56704;54.242;12.442;2023-08-01T14:20:12;6.50;;;1.08;;
69502;SDS011;56704;54.242;12.442;2023-08-01T14:22:40;5.07;;;0.63;;
69502;SDS011;56704;54.242;12.442;2023-08-01T14:25:08;2.90;;;0.60;;
69502;SDS011;56704;54.242;12.442;2023-08-01T14:27:36;7.33;;;1.00;;
69502;SDS011;56704;54.242;12.442;2023-08-01T14:30:03;3.63;;;0.57;;
69502;SDS011;56704;54.242;12.442;2023-08-01T14:32:33;3.03;;;0.32;;
69502;SDS011;56704;54.242;12.442;2023-08-01T14:35:00;2.45;;;0.55;;
69502;SDS011;56704;54.242;12.442;2023-08-01T14:37:27;3.10;;;0.55;;
69502;SDS011;56704;54.242;12.442;2023-08-01T14:39:54;3.43;;;0.50;;
69502;SDS011;56704;54.242;12.442;2023-08-01T14:42:22;3.17;;;0.40;;
69502;SDS011;56704;54.242;12.442;2023-08-01T14:44:52;2.88;;;0.63;;
69502;SDS011;56704;54.242;12.442;2023-08-01T14:47:19;3.40;;;0.60;;
69502;SDS011;56704;54.242;12.442;2023-08-01T14:49:48;3.85;;;0.63;;
69502;SDS011;56704;54.242;12.442;2023-08-01T14:52:15;4.97;;;0.60;;
69502;SDS011;56704;54.242;12.442;2023-08-01T14:54:42;2.53;;;0.60;;
69502;SDS011;56704;54.242;12.442;2023-08-01T14:57:09;3.58;;;0.65;;
69502;SDS011;56704;54.242;12.442;2023-08-01T14:59:36;3.08;;;0.88;;
69502;SDS011;56704;54.242;12.442;2023-08-01T15:02:03;2.15;;;0.40;;
69502;SDS011;56704;54.242;12.442;2023-08-01T15:04:31;4.23;;;0.43;;
69502;SDS011;56704;54.242;12.442;2023-08-01T15:07:00;1.73;;;0.22;;
69502;SDS011;56704;54.242;12.442;2023-08-01T15:09:27;1.60;;;0.30;;
69502;SDS011;56704;54.242;12.442;2023-08-01T15:11:54;2.72;;;0.43;;
69502;SDS011;56704;54.242;12.442;2023-08-01T15:14:22;1.33;;;0.30;;
69502;SDS011;56704;54.242;12.442;2023-08-01T15:16:49;1.50;;;0.50;;
69502;SDS011;56704;54.242;12.442;2023-08-01T15:19:16;3.40;;;0.50;;
69502;SDS011;56704;54.242;12.442;2023-08-01T15:21:44;2.05;;;0.50;;
69502;SDS011;56704;54.242;12.442;2023-08-01T15:24:13;2.80;;;0.40;;
69502;SDS011;56704;54.242;12.442;2023-08-01T15:26:40;1.63;;;0.50;;
69502;SDS011;56704;54.242;12.442;2023-08-01T15:29:07;1.33;;;0.30;;
69502;SDS011;56704;54.242;12.442;2023-08-01T15:31:35;1.50;;;0.30;;
69502;SDS011;56704;54.242;12.442;2023-08-01T15:34:02;3.45;;;0.50;;
69502;SDS011;56704;54.242;12.442;2023-08-01T15:36:29;1.42;;;0.30;;
69502;SDS011;56704;54.242;12.442;2023-08-01T15:38:56;1.70;;;0.30;;
69502;SDS011;56704;54.242;12.442;2023-08-01T15:41:25;3.37;;;0.60;;
69502;SDS011;56704;54.242;12.442;2023-08-01T15:43:52;2.20;;;0.43;;
69502;SDS011;56704;54.242;12.442;2023-08-01T15:46:20;1.67;;;0.57;;
69502;SDS011;56704;54.242;12.442;2023-08-01T15:48:47;1.65;;;0.40;;
69502;SDS011;56704;54.242;12.442;2023-08-01T15:51:14;5.40;;;0.40;;
69502;SDS011;56704;54.242;12.442;2023-08-01T15:53:41;2.07;;;0.40;;
69502;SDS011;56704;54.242;12.442;2023-08-01T16:06:51;1.00;;;0.20;;
69502;SDS011;56704;54.242;12.442;2023-08-01T16:09:18;1.75;;;0.40;;
69502;SDS011;56704;54.242;12.442;2023-08-01T16:11:45;2.37;;;0.40;;
69502;SDS011;56704;54.242;12.442;2023-08-01T16:14:12;1.50;;;0.30;;
69502;SDS011;56704;54.242;12.442;2023-08-01T16:16:40;1.73;;;0.40;;
69502;SDS011;56704;54.242;12.442;2023-08-01T16:19:07;2.90;;;0.45;;
69502;SDS011;56704;54.242;12.442;2023-08-01T16:21:34;2.17;;;0.40;;
69502;SDS011;56704;54.242;12.442;2023-08-01T16:24:02;2.17;;;0.50;;
69502;SDS011;56704;54.242;12.442;2023-08-01T16:26:30;1.30;;;0.30;;
69502;SDS011;56704;54.242;12.442;2023-08-01T16:28:57;1.73;;;0.40;;
69502;SDS011;56704;54.242;12.442;2023-08-01T16:31:24;4.05;;;0.70;;
69502;SDS011;56704;54.242;12.442;2023-08-01T16:33:51;1.45;;;0.30;;
69502;SDS011;56704;54.242;12.442;2023-08-01T16:36:18;1.53;;;0.40;;